Terminal Aerodrome Forecast
Issued by NWS

Home | Current Version | Previous Version | Text Only | Print | Product List | Glossary On
Versions: 1 2 3 4 5 6 7 8 9 10 11 12 13 14 15 16 17
000
FTUS45 KRIW 272300
TAFCPR
TAF
KCPR 272328Z 2800/2824 23008KT P6SM VCSH SCT050 BKN080
     FM280130 VRB10G18KT P6SM -TSRA SCT030 BKN060CB
     FM280300 23008KT P6SM VCSH SCT050 BKN080
     FM281800 23014G20KT P6SM VCSH SCT060
     FM282100 VRB15G25KT P6SM VCTS SCT050CB BKN070=

USA.gov is the U.S. government's official web portal to all federal, state and local government web resources and services.